Time;durP1;ratioP1;P1;durP2;ratioP2;P2;SDS_P1;SDS_P2;PMS_P1;PMS_P2;Temp;Humidity;BMP_temperature;BMP_pressure;BME280_temperature;BME280_humidity;BME280_pressure;Samples;Min_cycle;Max_cycle;Signal;HPM_P1;HPM_P2
2021/03/16 00:02:30;;;;;;;5.95;2.83;;;6.10;85.30;;;;;;6279553;28;20059;-81
2021/03/16 00:05:32;;;;;;;8.45;3.10;;;6.10;85.20;;;;;;6301280;28;20038;-78
2021/03/16 00:08:33;;;;;;;6.65;3.15;;;6.10;85.30;;;;;;6297441;28;20490;-80
2021/03/16 00:11:34;;;;;;;4.18;2.80;;;6.10;85.00;;;;;;6272771;28;20044;-81
2021/03/16 00:14:37;;;;;;;10.73;3.13;;;6.00;85.70;;;;;;6272723;28;20570;-80
2021/03/16 00:17:38;;;;;;;7.28;3.95;;;6.10;85.70;;;;;;6272283;28;20513;-79
2021/03/16 00:20:40;;;;;;;8.52;4.93;;;6.10;86.00;;;;;;6273216;28;20076;-81
2021/03/16 00:23:41;;;;;;;8.38;2.88;;;6.10;86.20;;;;;;6272654;28;20064;-80
2021/03/16 00:26:42;;;;;;;7.57;3.05;;;6.10;86.50;;;;;;6272453;28;20041;-80
2021/03/16 00:29:44;;;;;;;6.60;3.10;;;6.10;87.20;;;;;;6272532;28;20040;-81
2021/03/16 00:32:46;;;;;;;9.60;4.50;;;6.10;87.20;;;;;;6274346;28;20041;-79
2021/03/16 00:35:47;;;;;;;5.22;3.67;;;6.00;87.40;;;;;;6272738;28;20131;-81
2021/03/16 00:38:49;;;;;;;9.85;4.53;;;6.00;87.30;;;;;;6276052;28;20045;-81
2021/03/16 00:41:50;;;;;;;10.95;4.13;;;5.90;87.70;;;;;;6279766;28;20069;-80
2021/03/16 00:44:52;;;;;;;5.35;3.97;;;5.90;88.10;;;;;;6281194;28;20045;-80
2021/03/16 00:47:54;;;;;;;8.32;3.72;;;5.90;88.60;;;;;;6279959;28;20108;-81
2021/03/16 00:50:55;;;;;;;8.27;3.88;;;5.90;88.80;;;;;;6280327;28;20056;-81
2021/03/16 00:53:57;;;;;;;6.47;3.40;;;5.80;88.30;;;;;;6281055;28;20051;-81
2021/03/16 00:56:58;;;;;;;6.55;3.13;;;5.80;88.60;;;;;;6281232;28;20130;-81
2021/03/16 01:00:00;;;;;;;6.40;3.72;;;5.80;88.70;;;;;;6286445;28;20045;-80
2021/03/16 01:03:02;;;;;;;7.50;3.80;;;5.70;88.50;;;;;;6300364;28;20095;-81
2021/03/16 01:06:04;;;;;;;6.13;3.33;;;5.70;88.70;;;;;;6278344;28;20048;-81
2021/03/16 01:09:06;;;;;;;8.32;3.55;;;5.70;88.60;;;;;;6274585;28;20049;-81
2021/03/16 01:12:08;;;;;;;11.90;3.47;;;5.70;88.50;;;;;;6275341;28;20049;-81
2021/03/16 01:15:13;;;;;;;6.10;3.17;;;5.70;88.60;;;;;;6274461;28;20128;-81
2021/03/16 01:18:14;;;;;;;7.85;3.90;;;5.70;88.50;;;;;;6273756;28;20448;-81
2021/03/16 01:21:16;;;;;;;7.22;2.92;;;5.70;88.40;;;;;;6272382;28;20103;-79
2021/03/16 01:24:17;;;;;;;8.95;3.63;;;5.70;88.60;;;;;;6275495;28;20053;-79
2021/03/16 01:27:19;;;;;;;5.97;3.03;;;5.70;88.70;;;;;;6274807;28;20148;-82
2021/03/16 01:30:21;;;;;;;12.65;4.55;;;5.70;89.00;;;;;;6274803;28;20065;-81
2021/03/16 01:33:23;;;;;;;6.50;3.25;;;5.70;89.00;;;;;;6274999;28;20085;-82
2021/03/16 01:36:24;;;;;;;9.68;3.80;;;5.70;89.10;;;;;;6275197;28;20052;-80
2021/03/16 01:39:25;;;;;;;10.20;3.45;;;5.70;89.10;;;;;;6273689;28;20446;-79
2021/03/16 01:42:27;;;;;;;7.22;2.95;;;5.60;89.10;;;;;;6278122;28;20090;-79
2021/03/16 01:45:29;;;;;;;4.55;3.38;;;5.50;89.30;;;;;;6272114;28;20075;-80
2021/03/16 01:48:32;;;;;;;5.82;4.93;;;5.50;89.40;;;;;;6272613;28;20045;-81
2021/03/16 01:51:33;;;;;;;7.97;3.00;;;5.50;89.50;;;;;;6271922;28;20676;-81
2021/03/16 01:54:36;;;;;;;6.43;3.60;;;5.50;89.60;;;;;;6272349;28;20052;-80
2021/03/16 01:57:40;;;;;;;6.15;2.78;;;5.50;89.60;;;;;;6272435;28;20049;-81
2021/03/16 02:00:43;;;;;;;8.50;3.53;;;5.50;89.60;;;;;;6273661;28;20045;-81
2021/03/16 02:03:44;;;;;;;6.40;3.45;;;5.50;89.50;;;;;;6271939;28;20049;-81
2021/03/16 02:06:53;;;;;;;7.32;3.38;;;5.50;89.40;;;;;;6272249;28;20087;-80
2021/03/16 02:10:02;;;;;;;7.95;3.28;;;5.60;89.10;;;;;;6272077;28;20044;-78
2021/03/16 02:13:10;;;;;;;5.55;3.15;;;5.60;89.00;;;;;;6272356;28;20478;-81
2021/03/16 02:16:15;;;;;;;6.63;4.05;;;5.60;89.10;;;;;;6272623;28;20064;-81
2021/03/16 02:19:30;;;;;;;5.45;3.67;;;5.60;88.90;;;;;;6272038;28;20131;-81
2021/03/16 02:22:33;;;;;;;9.55;4.45;;;5.60;89.00;;;;;;6272495;28;20051;-81
2021/03/16 02:25:49;;;;;;;9.82;3.45;;;5.50;88.70;;;;;;6270653;28;20048;-80
2021/03/16 02:29:14;;;;;;;10.10;3.50;;;5.60;89.20;;;;;;6271030;28;20052;-80
2021/03/16 02:32:19;;;;;;;6.55;3.60;;;5.60;88.80;;;;;;6273269;28;20126;-79
2021/03/16 02:35:22;;;;;;;5.35;3.28;;;5.60;88.60;;;;;;6275925;28;20068;-80
2021/03/16 02:38:30;;;;;;;10.50;3.50;;;5.60;88.60;;;;;;6274889;28;20045;-79
2021/03/16 02:41:32;;;;;;;4.80;3.70;;;5.60;88.60;;;;;;6275481;28;20072;-80
2021/03/16 02:44:35;;;;;;;6.15;3.08;;;5.60;88.60;;;;;;6276803;28;20558;-81
2021/03/16 02:47:39;;;;;;;6.30;3.70;;;5.60;88.40;;;;;;6275666;28;20045;-79
2021/03/16 02:50:43;;;;;;;7.80;3.08;;;5.60;88.10;;;;;;6275733;28;20513;-79
2021/03/16 02:53:45;;;;;;;4.75;2.67;;;5.60;87.90;;;;;;6276187;28;20090;-79
2021/03/16 02:56:48;;;;;;;6.30;2.85;;;5.60;87.50;;;;;;6275860;28;20144;-80
2021/03/16 02:59:52;;;;;;;9.27;5.30;;;5.60;87.30;;;;;;6274890;28;20123;-80
2021/03/16 03:02:55;;;;;;;4.28;2.42;;;5.60;87.10;;;;;;6274744;28;20127;-80
2021/03/16 03:05:58;;;;;;;4.28;2.70;;;5.60;86.80;;;;;;6275270;28;20047;-80
2021/03/16 03:09:02;;;;;;;8.80;3.05;;;5.60;86.50;;;;;;6275280;28;20133;-79
2021/03/16 03:12:05;;;;;;;5.93;3.45;;;5.60;86.50;;;;;;6275087;28;20041;-79
2021/03/16 03:15:09;;;;;;;6.18;2.92;;;5.60;86.40;;;;;;6274339;28;20518;-80
2021/03/16 03:18:10;;;;;;;4.53;2.95;;;5.60;86.40;;;;;;6274724;28;20045;-80
2021/03/16 03:21:14;;;;;;;6.38;2.50;;;5.60;85.90;;;;;;6299028;22;20108;-78
2021/03/16 03:24:24;;;;;;;10.75;3.85;;;5.60;86.00;;;;;;6292665;28;20072;-78
2021/03/16 03:27:30;;;;;;;5.65;2.22;;;5.50;86.00;;;;;;6292780;28;20132;-82
2021/03/16 03:30:33;;;;;;;6.50;3.70;;;5.60;86.30;;;;;;6293490;28;20119;-80
2021/03/16 03:33:39;;;;;;;4.68;2.25;;;5.60;85.80;;;;;;6290787;28;20051;-81
2021/03/16 03:36:43;;;;;;;7.40;2.53;;;5.60;85.70;;;;;;6292601;28;20548;-81
2021/03/16 03:39:45;;;;;;;8.77;2.80;;;5.60;86.00;;;;;;6290985;28;20045;-81
2021/03/16 03:42:47;;;;;;;6.40;3.22;;;5.60;85.90;;;;;;6290989;28;20062;-79
2021/03/16 03:45:52;;;;;;;4.25;3.15;;;5.60;86.00;;;;;;6290646;28;20040;-80
2021/03/16 03:48:54;;;;;;;6.90;3.33;;;5.60;86.00;;;;;;6290118;28;20481;-81
2021/03/16 03:51:58;;;;;;;6.50;2.80;;;5.60;86.30;;;;;;6289523;28;20124;-82
2021/03/16 03:55:00;;;;;;;6.70;2.40;;;5.60;86.40;;;;;;6290750;28;20048;-80
2021/03/16 03:58:03;;;;;;;8.55;2.30;;;5.60;86.60;;;;;;6292248;28;20092;-80
2021/03/16 04:01:06;;;;;;;6.13;3.15;;;5.60;86.90;;;;;;6292111;28;20065;-80
2021/03/16 04:04:08;;;;;;;7.63;4.10;;;5.60;87.50;;;;;;6290458;28;20068;-79
2021/03/16 04:07:09;;;;;;;8.63;2.90;;;5.50;87.60;;;;;;6289747;28;20118;-80
2021/03/16 04:10:13;;;;;;;9.98;3.45;;;5.50;88.20;;;;;;6291222;28;20052;-79
2021/03/16 04:13:15;;;;;;;9.25;3.45;;;5.50;87.70;;;;;;6292978;28;20049;-81
2021/03/16 04:16:18;;;;;;;8.23;3.38;;;5.50;87.90;;;;;;6291221;28;20132;-80
2021/03/16 04:19:20;;;;;;;9.65;3.30;;;5.50;87.80;;;;;;6289170;28;20347;-81
2021/03/16 04:22:22;;;;;;;7.20;3.35;;;5.50;87.80;;;;;;6292555;28;20044;-80
2021/03/16 04:25:23;;;;;;;10.35;3.30;;;5.50;87.90;;;;;;6289700;28;20056;-81
2021/03/16 04:28:25;;;;;;;21.20;4.75;;;5.50;88.00;;;;;;6289369;28;20052;-80
2021/03/16 04:31:28;;;;;;;10.05;3.28;;;5.50;87.90;;;;;;6290787;28;20045;-80
2021/03/16 04:34:29;;;;;;;7.40;2.90;;;5.50;87.70;;;;;;6292956;28;20045;-81
2021/03/16 04:37:30;;;;;;;9.55;3.13;;;5.40;87.50;;;;;;6289926;28;20206;-81
2021/03/16 04:40:32;;;;;;;7.55;2.92;;;5.40;87.50;;;;;;6290778;28;20100;-81
2021/03/16 04:43:33;;;;;;;7.82;3.42;;;5.40;87.40;;;;;;6289728;28;20049;-80
2021/03/16 04:46:35;;;;;;;7.25;3.03;;;5.40;87.20;;;;;;6291009;28;20048;-80
2021/03/16 04:49:37;;;;;;;6.90;2.22;;;5.40;87.00;;;;;;6295904;28;20040;-80
2021/03/16 04:52:38;;;;;;;8.13;4.88;;;5.40;86.90;;;;;;6295944;28;20041;-81
2021/03/16 04:55:39;;;;;;;3.42;2.72;;;5.40;86.80;;;;;;6290447;28;20044;-81
2021/03/16 04:58:40;;;;;;;9.75;2.97;;;5.40;86.60;;;;;;6290207;28;20055;-81
2021/03/16 05:01:43;;;;;;;4.70;2.70;;;5.40;86.40;;;;;;6291665;28;20049;-80
2021/03/16 05:04:44;;;;;;;7.00;2.75;;;5.40;86.50;;;;;;6292001;28;20053;-80
2021/03/16 05:07:46;;;;;;;5.10;2.97;;;5.40;86.70;;;;;;6292413;28;20557;-78
2021/03/16 05:10:47;;;;;;;5.55;2.58;;;5.40;86.40;;;;;;6293653;28;20101;-80
2021/03/16 05:13:48;;;;;;;6.10;2.30;;;5.40;86.20;;;;;;6293542;28;20067;-79
2021/03/16 05:16:50;;;;;;;5.80;3.17;;;5.40;86.20;;;;;;6294153;28;20063;-80
2021/03/16 05:19:52;;;;;;;5.82;2.50;;;5.50;86.20;;;;;;6294114;28;20037;-80
2021/03/16 05:22:53;;;;;;;7.25;2.80;;;5.50;86.20;;;;;;6293858;28;20563;-79
2021/03/16 05:25:54;;;;;;;18.27;4.65;;;5.50;86.10;;;;;;6292246;28;20094;-80
2021/03/16 05:28:55;;;;;;;10.63;4.63;;;5.50;85.90;;;;;;6293554;28;20053;-78
2021/03/16 05:31:58;;;;;;;7.35;3.38;;;5.50;85.50;;;;;;6279917;28;20072;-78
2021/03/16 05:34:59;;;;;;;8.75;3.47;;;5.50;85.10;;;;;;6290803;28;20049;-79
2021/03/16 05:38:01;;;;;;;7.50;3.47;;;5.50;85.60;;;;;;6293396;28;20072;-80
2021/03/16 05:41:02;;;;;;;10.73;3.15;;;5.50;85.20;;;;;;6294573;28;20060;-80
2021/03/16 05:44:05;;;;;;;6.03;2.65;;;5.50;85.10;;;;;;6293142;28;20064;-79
2021/03/16 05:47:08;;;;;;;6.45;3.35;;;5.50;85.00;;;;;;6294121;28;20111;-80
2021/03/16 05:50:10;;;;;;;10.15;2.75;;;5.60;84.80;;;;;;6293041;28;20041;-79
2021/03/16 05:53:11;;;;;;;5.80;1.95;;;5.60;84.70;;;;;;6294099;28;20102;-80
2021/03/16 05:56:13;;;;;;;6.00;2.38;;;5.60;84.50;;;;;;6293828;28;20061;-79
2021/03/16 05:59:15;;;;;;;10.15;2.20;;;5.60;84.40;;;;;;6291733;28;20052;-80
2021/03/16 06:02:17;;;;;;;9.02;3.15;;;5.60;84.50;;;;;;6291968;28;20049;-79
2021/03/16 06:05:19;;;;;;;4.90;2.28;;;5.60;84.40;;;;;;6293230;28;20041;-79
2021/03/16 06:08:20;;;;;;;4.93;2.55;;;5.60;84.30;;;;;;6295676;28;20445;-80
2021/03/16 06:11:21;;;;;;;17.25;5.70;;;5.70;84.20;;;;;;6296932;28;20041;-79
2021/03/16 06:14:30;;;;;;;7.30;3.47;;;5.70;84.30;;;;;;6297795;28;20045;-79
2021/03/16 06:17:32;;;;;;;5.97;2.83;;;5.70;84.30;;;;;;6295657;28;20118;-79
2021/03/16 06:20:35;;;;;;;6.22;3.22;;;5.70;84.40;;;;;;6296049;28;20049;-80
2021/03/16 06:23:38;;;;;;;7.00;2.67;;;5.80;84.70;;;;;;6296818;28;20108;-80
2021/03/16 06:26:48;;;;;;;3.45;2.45;;;5.80;84.30;;;;;;6296783;28;20094;-80
2021/03/16 06:29:50;;;;;;;9.98;3.10;;;5.80;83.90;;;;;;6296046;28;20064;-80
2021/03/16 06:32:52;;;;;;;7.45;2.78;;;5.80;83.90;;;;;;6297536;28;20117;-80
2021/03/16 06:35:59;;;;;;;4.97;2.20;;;5.80;83.80;;;;;;6298030;28;20044;-80
2021/03/16 06:39:02;;;;;;;8.18;2.42;;;5.80;83.90;;;;;;6297288;28;20099;-79
2021/03/16 06:42:04;;;;;;;8.18;3.25;;;5.80;83.60;;;;;;6294688;28;20045;-79
2021/03/16 06:45:07;;;;;;;6.68;2.90;;;5.90;83.60;;;;;;6295216;28;20075;-80
2021/03/16 06:48:21;;;;;;;14.95;3.95;;;5.90;83.80;;;;;;6295813;28;20076;-78
2021/03/16 06:51:26;;;;;;;10.55;4.03;;;5.90;83.50;;;;;;6295515;28;20061;-79
2021/03/16 06:54:28;;;;;;;8.02;2.50;;;6.00;83.50;;;;;;6296096;28;20102;-80
2021/03/16 06:57:29;;;;;;;2.53;2.33;;;6.00;84.30;;;;;;6293322;28;20076;-79
2021/03/16 07:00:31;;;;;;;6.75;3.05;;;6.20;84.00;;;;;;6296127;28;20041;-80
2021/03/16 07:03:33;;;;;;;5.00;3.33;;;6.30;84.00;;;;;;6290774;28;20072;-79
2021/03/16 07:06:34;;;;;;;4.15;2.97;;;6.40;84.70;;;;;;6282240;28;20046;-80
2021/03/16 07:09:36;;;;;;;9.32;3.80;;;6.50;83.70;;;;;;6282452;28;20037;-80
2021/03/16 07:12:38;;;;;;;7.30;3.05;;;6.60;82.80;;;;;;6294264;28;20049;-76
2021/03/16 07:15:40;;;;;;;7.97;3.38;;;6.70;83.40;;;;;;6269667;28;20049;-81
2021/03/16 07:18:44;;;;;;;8.57;3.25;;;6.70;82.90;;;;;;6264752;28;20045;-79
2021/03/16 07:21:50;;;;;;;8.52;3.05;;;6.80;82.60;;;;;;6276606;28;20060;-80
2021/03/16 07:24:52;;;;;;;4.45;2.42;;;6.80;81.70;;;;;;6297211;28;20048;-80
2021/03/16 07:27:54;;;;;;;4.13;2.95;;;6.70;81.60;;;;;;6296214;28;20052;-79
2021/03/16 07:30:56;;;;;;;10.25;3.35;;;6.60;82.30;;;;;;6295716;28;20037;-78
2021/03/16 07:34:01;;;;;;;8.38;3.80;;;6.60;82.50;;;;;;6297126;28;20052;-80
2021/03/16 07:37:05;;;;;;;7.80;3.25;;;6.60;83.20;;;;;;6295951;28;20445;-80
2021/03/16 07:40:08;;;;;;;12.45;4.05;;;6.60;82.70;;;;;;6290338;28;20068;-80
2021/03/16 07:43:11;;;;;;;5.25;2.92;;;6.60;82.20;;;;;;6295440;28;20049;-80
2021/03/16 07:46:14;;;;;;;7.55;3.53;;;6.60;81.70;;;;;;6295955;28;20068;-80
2021/03/16 07:49:32;;;;;;;15.40;4.15;;;6.60;81.50;;;;;;6295145;28;20056;-79
2021/03/16 07:52:44;;;;;;;7.10;3.45;;;6.70;81.50;;;;;;6296448;28;20418;-79
2021/03/16 07:55:46;;;;;;;6.95;3.58;;;6.80;81.40;;;;;;6294903;28;20127;-79
2021/03/16 07:58:47;;;;;;;12.93;5.13;;;6.80;81.20;;;;;;6293847;28;20041;-80
2021/03/16 08:01:49;;;;;;;5.63;3.50;;;6.80;80.80;;;;;;6293589;28;20056;-80
2021/03/16 08:04:51;;;;;;;7.00;3.60;;;6.90;80.40;;;;;;6294510;28;20045;-80
2021/03/16 08:07:53;;;;;;;4.60;3.13;;;6.90;80.40;;;;;;6293118;28;20051;-78
2021/03/16 08:11:07;;;;;;;8.32;3.72;;;7.00;80.30;;;;;;6293448;28;20052;-79
2021/03/16 08:14:09;;;;;;;8.10;3.83;;;7.00;80.30;;;;;;6293660;28;20102;-79
2021/03/16 08:17:10;;;;;;;9.43;4.07;;;7.10;79.70;;;;;;6292772;28;20045;-80
2021/03/16 08:20:22;;;;;;;6.40;3.33;;;7.10;79.40;;;;;;6294528;28;20052;-78
2021/03/16 08:23:32;;;;;;;5.70;2.95;;;7.20;79.10;;;;;;6294438;28;20052;-80
2021/03/16 08:26:33;;;;;;;12.13;2.78;;;7.30;78.90;;;;;;6292978;28;20053;-80
2021/03/16 08:29:35;;;;;;;8.05;3.92;;;7.40;78.30;;;;;;6291078;28;20071;-80
2021/03/16 08:32:37;;;;;;;4.55;2.45;;;7.50;77.70;;;;;;6291671;28;20068;-80
2021/03/16 08:35:46;;;;;;;6.80;2.67;;;7.70;77.70;;;;;;6289992;28;20049;-80
2021/03/16 08:38:52;;;;;;;5.45;2.65;;;7.80;76.40;;;;;;6284170;28;20585;-77
2021/03/16 08:41:55;;;;;;;9.43;3.08;;;8.00;76.10;;;;;;6287499;28;20127;-78
2021/03/16 08:44:57;;;;;;;7.45;2.55;;;8.10;75.00;;;;;;6289440;28;20045;-79
2021/03/16 08:47:59;;;;;;;8.60;2.92;;;8.10;74.30;;;;;;6289925;28;20080;-79
2021/03/16 08:51:01;;;;;;;13.25;3.03;;;8.20;74.10;;;;;;6293923;28;20037;-79
2021/03/16 08:54:03;;;;;;;6.50;2.42;;;8.30;74.20;;;;;;6294322;28;20041;-78
2021/03/16 08:57:05;;;;;;;6.03;2.35;;;8.40;73.50;;;;;;6293358;28;20060;-79
2021/03/16 09:00:08;;;;;;;8.45;2.15;;;8.40;72.90;;;;;;6294882;28;20036;-79
2021/03/16 09:03:09;;;;;;;6.07;2.08;;;8.50;72.50;;;;;;6291072;28;20088;-80
2021/03/16 09:06:18;;;;;;;7.10;2.70;;;8.50;72.20;;;;;;6291635;28;20041;-78
2021/03/16 09:09:25;;;;;;;6.18;2.53;;;8.50;71.40;;;;;;6300547;28;20033;-77
2021/03/16 09:12:27;;;;;;;7.10;2.13;;;8.50;71.80;;;;;;6303759;28;20056;-76
2021/03/16 09:15:30;;;;;;;8.82;1.77;;;8.60;71.50;;;;;;6303521;28;20037;-76
2021/03/16 09:18:33;;;;;;;10.77;2.42;;;8.70;70.70;;;;;;6303636;28;20100;-76
2021/03/16 09:21:36;;;;;;;4.75;2.88;;;8.80;70.50;;;;;;6303051;28;20044;-78
2021/03/16 09:24:43;;;;;;;5.40;2.65;;;8.90;69.80;;;;;;6303731;28;20044;-79
2021/03/16 09:27:44;;;;;;;4.05;2.45;;;9.00;69.00;;;;;;6302738;28;20097;-79
2021/03/16 09:30:52;;;;;;;8.48;2.47;;;9.10;69.10;;;;;;6294919;28;20047;-77
2021/03/16 09:33:54;;;;;;;4.85;1.45;;;9.10;67.70;;;;;;6276931;28;20127;-77
2021/03/16 09:37:01;;;;;;;8.32;2.08;;;9.10;67.00;;;;;;6283257;28;20052;-78
2021/03/16 09:40:02;;;;;;;4.53;1.75;;;9.00;66.60;;;;;;6279767;28;20041;-77
2021/03/16 09:43:16;;;;;;;3.63;1.55;;;8.90;66.20;;;;;;6284747;28;20079;-78
2021/03/16 09:46:17;;;;;;;5.57;1.83;;;8.90;66.10;;;;;;6285648;28;20064;-78
2021/03/16 09:49:27;;;;;;;6.82;1.90;;;8.90;66.60;;;;;;6281378;28;20513;-77
2021/03/16 09:52:30;;;;;;;5.47;2.60;;;8.90;65.90;;;;;;6282214;28;20072;-77
2021/03/16 09:55:32;;;;;;;7.57;1.85;;;8.90;65.70;;;;;;6287092;28;20044;-76
2021/03/16 09:58:33;;;;;;;9.15;1.80;;;8.90;66.20;;;;;;6286248;28;20040;-79
2021/03/16 10:01:40;;;;;;;5.25;2.00;;;9.00;65.80;;;;;;6286218;28;20064;-79
2021/03/16 10:04:48;;;;;;;4.78;2.08;;;9.00;65.60;;;;;;6288307;28;20055;-78
2021/03/16 10:07:52;;;;;;;9.68;3.30;;;9.10;65.30;;;;;;6286911;28;20072;-79
2021/03/16 10:10:54;;;;;;;3.83;1.60;;;9.10;64.60;;;;;;6287512;28;20132;-79
2021/03/16 10:13:56;;;;;;;11.23;5.75;;;9.00;64.00;;;;;;6286263;28;20085;-78
2021/03/16 10:16:57;;;;;;;7.55;2.05;;;9.10;64.30;;;;;;6284702;28;20060;-80
2021/03/16 10:20:00;;;;;;;4.75;1.77;;;9.20;63.80;;;;;;6278968;28;20131;-77
2021/03/16 10:23:05;;;;;;;3.53;1.80;;;9.30;64.00;;;;;;6277924;28;20045;-78
2021/03/16 10:26:07;;;;;;;5.57;1.55;;;9.40;61.70;;;;;;6282889;28;20087;-79
2021/03/16 10:29:10;;;;;;;5.72;2.50;;;9.40;61.30;;;;;;6283446;28;20095;-79
2021/03/16 10:32:11;;;;;;;10.93;1.50;;;9.50;61.40;;;;;;6286382;28;20079;-79
2021/03/16 10:35:14;;;;;;;5.18;1.73;;;9.60;61.10;;;;;;6285886;28;20056;-79
2021/03/16 10:38:17;;;;;;;5.15;1.33;;;9.80;60.60;;;;;;6284226;28;20049;-80
2021/03/16 10:41:19;;;;;;;4.97;2.05;;;10.00;59.50;;;;;;6265479;28;20049;-78
2021/03/16 10:44:21;;;;;;;6.10;2.08;;;10.20;58.10;;;;;;6282811;28;20507;-80
2021/03/16 10:47:22;;;;;;;4.88;1.80;;;10.20;58.10;;;;;;6276235;28;20140;-77
2021/03/16 10:50:23;;;;;;;8.88;1.75;;;10.40;57.50;;;;;;6277404;28;20069;-77
2021/03/16 10:53:27;;;;;;;2.78;1.42;;;10.40;57.00;;;;;;6277371;28;20497;-77
2021/03/16 10:56:28;;;;;;;3.65;2.00;;;10.40;55.80;;;;;;6278044;28;20102;-77
2021/03/16 10:59:29;;;;;;;2.45;1.30;;;10.50;54.80;;;;;;6276188;28;20505;-77
2021/03/16 11:02:30;;;;;;;5.28;2.13;;;10.60;55.10;;;;;;6275846;28;20132;-78
2021/03/16 11:05:32;;;;;;;7.90;4.60;;;10.60;54.40;;;;;;6279133;28;20119;-78
2021/03/16 11:08:34;;;;;;;8.02;2.20;;;10.70;54.00;;;;;;6283927;28;20045;-77
2021/03/16 11:11:35;;;;;;;7.40;1.83;;;10.90;54.20;;;;;;6282076;28;20041;-76
2021/03/16 11:14:37;;;;;;;4.10;1.58;;;11.00;53.60;;;;;;6280517;28;20492;-78
2021/03/16 11:17:38;;;;;;;9.68;1.70;;;11.00;53.80;;;;;;6278059;28;20048;-78
2021/03/16 11:20:39;;;;;;;7.30;2.03;;;11.00;53.40;;;;;;6286386;28;20041;-76
2021/03/16 11:23:41;;;;;;;5.97;2.80;;;10.90;53.70;;;;;;6282810;28;20170;-78
2021/03/16 11:26:43;;;;;;;8.50;2.17;;;10.60;53.90;;;;;;6282213;28;20052;-78
2021/03/16 11:29:44;;;;;;;5.85;2.47;;;10.40;53.70;;;;;;6287770;28;20075;-79
2021/03/16 11:32:45;;;;;;;7.05;2.13;;;10.40;53.90;;;;;;6288563;28;20045;-78
2021/03/16 11:35:47;;;;;;;3.80;1.40;;;10.30;54.00;;;;;;6283051;28;20045;-78
2021/03/16 11:38:49;;;;;;;8.98;3.15;;;10.30;54.30;;;;;;6284838;28;20049;-77
2021/03/16 11:41:50;;;;;;;12.73;2.25;;;10.20;54.50;;;;;;6285689;28;20095;-78
2021/03/16 11:44:51;;;;;;;5.00;2.45;;;10.10;54.80;;;;;;6285372;28;20110;-81
2021/03/16 11:47:53;;;;;;;2.83;1.15;;;10.10;55.20;;;;;;6284303;28;20108;-80
2021/03/16 11:50:54;;;;;;;4.55;2.05;;;10.20;55.20;;;;;;6289048;28;20037;-79
2021/03/16 11:53:56;;;;;;;5.20;2.10;;;10.20;54.30;;;;;;6282412;28;20064;-80
2021/03/16 11:56:58;;;;;;;5.32;1.90;;;10.30;55.00;;;;;;6282065;28;20049;-80
2021/03/16 11:59:59;;;;;;;5.63;2.10;;;10.50;54.20;;;;;;6281660;28;20041;-79
2021/03/16 12:03:00;;;;;;;7.22;2.92;;;10.60;54.10;;;;;;6280923;28;20122;-79
2021/03/16 12:06:02;;;;;;;5.85;2.95;;;10.60;53.70;;;;;;6280466;28;20102;-79
2021/03/16 12:09:08;;;;;;;5.07;1.90;;;10.70;53.50;;;;;;6281429;28;20056;-79
2021/03/16 12:12:10;;;;;;;5.28;2.03;;;10.70;53.60;;;;;;6279716;28;20098;-79
2021/03/16 12:15:14;;;;;;;5.20;2.20;;;10.70;53.80;;;;;;6255559;28;20073;-80
2021/03/16 12:18:15;;;;;;;9.13;3.00;;;10.60;53.30;;;;;;6252817;28;20470;-83
2021/03/16 12:21:16;;;;;;;3.13;1.80;;;10.60;54.10;;;;;;6254672;28;20046;-80
2021/03/16 12:24:19;;;;;;;5.45;2.40;;;10.60;54.60;;;;;;6254853;28;20053;-81
2021/03/16 12:27:20;;;;;;;5.75;2.53;;;10.60;54.60;;;;;;6254591;28;20080;-79
2021/03/16 12:30:22;;;;;;;10.43;2.80;;;10.90;55.50;;;;;;6254019;28;20076;-81
2021/03/16 12:33:24;;;;;;;7.47;1.85;;;11.00;54.00;;;;;;6253796;28;20051;-81
2021/03/16 12:36:25;;;;;;;4.78;1.73;;;11.10;53.60;;;;;;6254011;28;20065;-80
2021/03/16 12:39:27;;;;;;;3.63;1.52;;;11.20;52.20;;;;;;6253065;28;20080;-81
2021/03/16 12:42:28;;;;;;;6.72;1.70;;;11.10;52.30;;;;;;6253451;28;20429;-81
2021/03/16 12:45:30;;;;;;;3.67;1.58;;;11.10;52.50;;;;;;6253634;28;20117;-80
2021/03/16 12:48:31;;;;;;;4.15;1.90;;;11.00;52.90;;;;;;6253938;28;20106;-80
2021/03/16 12:51:32;;;;;;;10.02;9.10;;;10.90;53.90;;;;;;6252398;28;20068;-80
2021/03/16 12:54:34;;;;;;;21.63;19.42;;;10.90;53.30;;;;;;6255759;28;20041;-81
2021/03/16 12:57:36;;;;;;;13.07;11.90;;;10.90;53.00;;;;;;6253240;28;20069;-80
2021/03/16 13:00:37;;;;;;;28.38;22.80;;;10.80;53.40;;;;;;6253169;28;20530;-80
2021/03/16 13:03:38;;;;;;;26.05;18.17;;;10.90;53.80;;;;;;6252021;28;20457;-81
2021/03/16 13:06:40;;;;;;;13.82;9.35;;;10.90;53.80;;;;;;6252138;28;20049;-80
2021/03/16 13:09:42;;;;;;;17.80;7.97;;;10.90;54.30;;;;;;6252022;28;20666;-79
2021/03/16 13:12:43;;;;;;;10.75;8.05;;;10.90;53.60;;;;;;6252489;28;20073;-80
2021/03/16 13:15:45;;;;;;;33.30;20.13;;;10.90;54.20;;;;;;6251791;28;20045;-79
2021/03/16 13:18:47;;;;;;;24.08;21.48;;;10.80;54.80;;;;;;6251911;28;20054;-82
2021/03/16 13:21:48;;;;;;;7.22;2.67;;;10.80;55.40;;;;;;6253934;28;20064;-80
2021/03/16 13:24:50;;;;;;;8.50;4.85;;;10.80;56.00;;;;;;6252655;28;20053;-81
2021/03/16 13:27:52;;;;;;;10.45;8.00;;;10.70;55.90;;;;;;6251017;28;20053;-78
2021/03/16 13:30:54;;;;;;;16.40;13.05;;;10.70;55.40;;;;;;6250976;28;20415;-80
2021/03/16 13:33:56;;;;;;;3.00;2.70;;;10.70;56.40;;;;;;6250447;28;20045;-79
2021/03/16 13:36:57;;;;;;;6.10;4.90;;;10.70;56.40;;;;;;6257756;28;20103;-79
2021/03/16 13:39:59;;;;;;;4.07;2.25;;;10.80;56.70;;;;;;6277033;28;20052;-78
2021/03/16 13:43:01;;;;;;;7.75;3.95;;;10.90;56.80;;;;;;6275315;28;20419;-78
2021/03/16 13:46:02;;;;;;;8.15;3.00;;;11.00;56.70;;;;;;6274394;28;20069;-79
2021/03/16 13:49:04;;;;;;;4.45;2.10;;;11.00;56.70;;;;;;6274079;28;20072;-78
2021/03/16 13:52:06;;;;;;;5.15;2.13;;;11.00;56.90;;;;;;6276197;28;20082;-80
2021/03/16 13:55:09;;;;;;;3.35;2.10;;;11.00;57.50;;;;;;6275075;28;20088;-77
2021/03/16 13:58:10;;;;;;;6.20;2.20;;;11.00;57.20;;;;;;6276730;28;20049;-80
2021/03/16 14:01:12;;;;;;;7.03;2.67;;;10.90;56.90;;;;;;6275502;28;20466;-78
2021/03/16 14:04:13;;;;;;;29.13;16.35;;;10.70;57.40;;;;;;6276926;28;20057;-78
2021/03/16 14:07:14;;;;;;;11.32;5.60;;;10.50;58.40;;;;;;6276681;28;20053;-81
2021/03/16 14:10:17;;;;;;;3.58;2.47;;;10.40;59.00;;;;;;6276406;28;20063;-80
2021/03/16 14:13:18;;;;;;;3.75;2.33;;;10.40;59.00;;;;;;6277418;28;20049;-80
2021/03/16 14:16:19;;;;;;;4.35;2.42;;;10.40;58.30;;;;;;6278669;28;20049;-82
2021/03/16 14:19:21;;;;;;;5.43;1.92;;;10.50;57.30;;;;;;6293844;28;20068;-81
2021/03/16 14:22:22;;;;;;;2.95;2.00;;;10.60;57.10;;;;;;6303198;28;20072;-79
2021/03/16 14:25:24;;;;;;;5.07;2.50;;;10.70;56.80;;;;;;6304083;28;20098;-78
2021/03/16 14:28:26;;;;;;;3.22;2.22;;;10.70;56.60;;;;;;6306521;28;20118;-77
2021/03/16 14:31:27;;;;;;;4.72;2.38;;;10.60;56.30;;;;;;6307180;28;20457;-80
2021/03/16 14:34:29;;;;;;;5.55;2.45;;;10.50;57.90;;;;;;6305647;28;20044;-75
2021/03/16 14:37:30;;;;;;;3.50;2.25;;;10.40;58.10;;;;;;6306058;28;20044;-80
2021/03/16 14:40:32;;;;;;;4.32;2.25;;;10.30;58.80;;;;;;6307090;28;20051;-79
2021/03/16 14:43:34;;;;;;;2.70;2.22;;;10.20;58.60;;;;;;6306031;28;20040;-79
2021/03/16 14:46:35;;;;;;;3.95;1.52;;;10.20;59.50;;;;;;6306361;28;20468;-79
2021/03/16 14:49:36;;;;;;;6.80;1.75;;;10.20;59.20;;;;;;6307688;28;20461;-78
2021/03/16 14:52:38;;;;;;;6.57;1.70;;;10.00;59.40;;;;;;6307470;28;20040;-80
2021/03/16 14:55:40;;;;;;;4.05;2.15;;;9.80;59.60;;;;;;6277529;28;20068;-78
2021/03/16 14:58:44;;;;;;;6.63;2.97;;;9.60;60.50;;;;;;6265445;28;20128;-78
2021/03/16 15:01:47;;;;;;;3.28;1.85;;;9.60;60.80;;;;;;6272617;28;20106;-79
2021/03/16 15:04:48;;;;;;;3.97;1.83;;;9.70;61.20;;;;;;6268264;28;20114;-78
2021/03/16 15:07:50;;;;;;;3.70;2.63;;;9.80;61.00;;;;;;6271367;28;20503;-76
2021/03/16 15:10:52;;;;;;;6.45;4.97;;;9.80;61.10;;;;;;6270764;28;20041;-78
2021/03/16 15:13:53;;;;;;;11.68;2.55;;;9.90;60.40;;;;;;6273010;28;20049;-80
2021/03/16 15:16:55;;;;;;;9.73;7.95;;;10.00;60.60;;;;;;6261393;28;20118;-80
2021/03/16 15:19:56;;;;;;;36.67;23.88;;;10.10;59.70;;;;;;6281877;28;20457;-78
2021/03/16 15:22:57;;;;;;;32.38;24.35;;;10.20;59.60;;;;;;6266119;28;20045;-80
2021/03/16 15:26:02;;;;;;;10.48;6.93;;;10.20;59.50;;;;;;6260435;28;20048;-78
2021/03/16 15:29:04;;;;;;;7.72;4.55;;;10.20;59.20;;;;;;6268417;28;20100;-78
2021/03/16 15:32:06;;;;;;;15.20;10.25;;;10.10;58.80;;;;;;6255125;28;20131;-79
2021/03/16 15:35:09;;;;;;;17.20;15.30;;;10.10;59.60;;;;;;6264418;28;20051;-78
2021/03/16 15:38:10;;;;;;;12.48;11.20;;;10.00;59.70;;;;;;6264653;28;20041;-78
2021/03/16 15:41:13;;;;;;;9.52;5.95;;;9.90;59.90;;;;;;6266213;28;20130;-80
2021/03/16 15:44:15;;;;;;;7.85;3.60;;;9.90;60.00;;;;;;6265552;28;20091;-79
2021/03/16 15:47:17;;;;;;;6.40;2.88;;;9.80;60.30;;;;;;6264217;28;20049;-79
2021/03/16 15:50:19;;;;;;;13.20;2.95;;;9.70;60.50;;;;;;6268877;28;20049;-79
2021/03/16 15:53:20;;;;;;;5.97;2.67;;;9.70;60.50;;;;;;6268661;28;20055;-78
2021/03/16 15:56:22;;;;;;;3.47;2.38;;;9.60;60.20;;;;;;6266871;28;20053;-79
2021/03/16 15:59:24;;;;;;;6.13;3.63;;;9.40;60.50;;;;;;6272556;28;20049;-79